Station History

Weather Underground - logo

Station Historical Data
Daily Summary for February 3, 2018 Units:  English    Metric   Both
« Previous Day
Next Day »
Daily Weekly Monthly Yearly Custom
  High: Low: Average:
Temperature: TemperatureF °F 41.0 °F 55.4 °F
Dew Point: DewpointF °F 39.4 °F 47.9 °F
Humidity: Humidity % 47 % 78 %
Wind Speed: WindSpeedMPH mph 0.0 mph 0.4 mph
Wind Gust: WindSpeedGustMPH mph - -
Wind:- - West
Pressure: PressureIn in 30.08 in -
Precipitation: 0.01 in    
Historical Graphs
 
 
Tabular Data for February 3, 2018
Time Temperature Dew Point Pressure Wind Wind Speed Wind Gust Humidity Rainfall Rate (Hourly)
TemperatureF °F DewpointF °F PressureIn in Calm     Humidity % HourlyPrecipIn in
00:01 48.1 °F 45.9 °F 30.17 in Calm     92 % 0.00 in
00:06 48.2 °F 46.0 °F 30.17 in Calm     92 % 0.00 in
00:11 48.2 °F 46.0 °F 30.17 in North 1.2 mph 1.2 mph 92 % 0.00 in
00:16 48.1 °F 45.6 °F 30.17 in Calm     91 % 0.00 in
00:21 48.1 °F 45.6 °F 30.17 in Calm     91 % 0.00 in
00:26 48.2 °F 46.0 °F 30.17 in Calm     92 % 0.00 in
00:31 48.1 °F 45.9 °F 30.17 in Calm     92 % 0.00 in
00:36 47.9 °F 45.7 °F 30.17 in Calm     92 % 0.00 in
00:41 47.9 °F 45.7 °F 30.17 in North 1.2 mph 1.2 mph 92 % 0.00 in
00:46 47.9 °F 45.7 °F 30.16 in Calm     92 % 0.00 in
00:51 47.8 °F 45.6 °F 30.16 in Calm     92 % 0.00 in
00:56 47.3 °F 44.5 °F 30.16 in Calm     90 % 0.00 in
01:01 46.9 °F 44.4 °F 30.16 in Calm     91 % 0.00 in
01:06 46.6 °F 43.8 °F 30.16 in Calm     90 % 0.00 in
01:11 46.3 °F 43.8 °F 30.16 in Calm     91 % 0.00 in
01:16 46.0 °F 43.5 °F 30.16 in Calm     91 % 0.00 in
01:21 45.9 °F 43.4 °F 30.16 in Calm     91 % 0.00 in
01:26 45.3 °F 42.5 °F 30.16 in Calm     90 % 0.00 in
01:31 44.9 °F 42.4 °F 30.16 in Calm     91 % 0.00 in
01:36 44.8 °F 42.3 °F 30.16 in Calm     91 % 0.00 in
01:41 44.6 °F 42.4 °F 30.16 in Calm     92 % 0.00 in
01:46 44.4 °F 42.2 °F 30.16 in Calm     92 % 0.00 in
01:51 44.3 °F 42.1 °F 30.16 in Calm     92 % 0.00 in
01:56 44.3 °F 42.1 °F 30.16 in Calm     92 % 0.00 in
02:01 44.1 °F 42.2 °F 30.16 in Calm     93 % 0.00 in
02:06 44.0 °F 42.1 °F 30.16 in Calm     93 % 0.00 in
02:11 43.9 °F 42.0 °F 30.16 in Calm     93 % 0.00 in
02:16 43.8 °F 41.9 °F 30.16 in Calm     93 % 0.00 in
02:21 43.7 °F 41.8 °F 30.16 in Calm     93 % 0.00 in
02:31 44.1 °F 42.5 °F 30.16 in Calm     94 % 0.00 in
02:36 44.3 °F 42.7 °F 30.16 in Calm     94 % 0.00 in
02:41 44.4 °F 42.8 °F 30.16 in Calm     94 % 0.00 in
02:46 44.7 °F 43.1 °F 30.16 in Calm     94 % 0.00 in
02:51 44.2 °F 42.3 °F 30.16 in Calm     93 % 0.00 in
02:56 44.1 °F 42.5 °F 30.16 in Calm     94 % 0.00 in
03:01 44.0 °F 42.1 °F 30.16 in Calm     93 % 0.00 in
03:06 44.0 °F 42.4 °F 30.16 in Calm     94 % 0.00 in
03:11 44.4 °F 42.8 °F 30.16 in Calm     94 % 0.00 in
03:16 44.7 °F 43.4 °F 30.16 in Calm     95 % 0.00 in
03:21 44.9 °F 43.6 °F 30.16 in NE 1.0 mph   95 % 0.00 in
03:26 45.2 °F 43.9 °F 30.16 in Calm     95 % 0.00 in
03:31 45.2 °F 43.6 °F 30.16 in Calm     94 % 0.00 in
03:36 45.3 °F 43.7 °F 30.16 in Calm     94 % 0.00 in
03:41 45.5 °F 43.9 °F 30.16 in Calm     94 % 0.00 in
03:46 45.7 °F 44.1 °F 30.16 in Calm     94 % 0.00 in
03:52 45.9 °F 44.3 °F 30.16 in Calm     94 % 0.00 in
03:57 46.0 °F 44.4 °F 30.16 in Calm     94 % 0.00 in
04:02 46.5 °F 45.1 °F 30.16 in Calm     95 % 0.00 in
04:07 46.7 °F 45.1 °F 30.16 in Calm     94 % 0.00 in
04:12 46.2 °F 44.3 °F 30.16 in Calm     93 % 0.00 in
04:17 45.5 °F 43.3 °F 30.16 in Calm     92 % 0.00 in
04:22 44.9 °F 42.7 °F 30.16 in Calm     92 % 0.00 in
04:27 44.6 °F 42.7 °F 30.16 in Calm     93 % 0.00 in
04:32 44.1 °F 41.9 °F 30.16 in Calm     92 % 0.00 in
04:37 43.8 °F 41.9 °F 30.16 in Calm     93 % 0.00 in
04:42 43.6 °F 41.7 °F 30.16 in Calm     93 % 0.00 in
04:47 43.6 °F 41.7 °F 30.16 in Calm     93 % 0.00 in
04:52 43.5 °F 41.9 °F 30.16 in Calm     94 % 0.00 in
04:57 43.4 °F 41.8 °F 30.16 in Calm     94 % 0.00 in
05:02 43.1 °F 41.2 °F 30.16 in Calm     93 % 0.00 in
05:07 42.9 °F 41.3 °F 30.17 in Calm     94 % 0.00 in
05:12 42.9 °F 41.3 °F 30.17 in Calm     94 % 0.00 in
05:17 42.9 °F 41.3 °F 30.17 in Calm     94 % 0.00 in
05:22 42.5 °F 40.6 °F 30.17 in Calm     93 % 0.00 in
05:27 42.3 °F 40.4 °F 30.17 in Calm     93 % 0.00 in
05:32 42.2 °F 40.3 °F 30.18 in Calm     93 % 0.00 in
05:37 42.5 °F 40.9 °F 30.18 in Calm     94 % 0.00 in
05:42 42.8 °F 41.2 °F 30.18 in Calm     94 % 0.00 in
05:47 42.5 °F 40.6 °F 30.18 in Calm     93 % 0.00 in
05:52 42.4 °F 40.8 °F 30.18 in Calm     94 % 0.00 in
05:57 42.5 °F 40.9 °F 30.18 in Calm     94 % 0.00 in
06:02 42.1 °F 40.2 °F 30.18 in Calm     93 % 0.00 in
06:07 42.2 °F 40.6 °F 30.18 in Calm     94 % 0.00 in
06:12 42.0 °F 40.1 °F 30.18 in Calm     93 % 0.00 in
06:17 41.9 °F 40.3 °F 30.18 in Calm     94 % 0.00 in
06:22 41.9 °F 40.3 °F 30.18 in Calm     94 % 0.00 in
06:27 41.6 °F 39.7 °F 30.18 in Calm     93 % 0.00 in
06:32 41.4 °F 39.8 °F 30.19 in Calm     94 % 0.00 in
06:37 41.3 °F 39.7 °F 30.19 in Calm     94 % 0.00 in
06:42 41.5 °F 39.9 °F 30.19 in Calm     94 % 0.00 in
06:47 41.6 °F 40.0 °F 30.19 in Calm     94 % 0.00 in
06:52 41.6 °F 40.0 °F 30.20 in Calm     94 % 0.00 in
06:57 41.5 °F 39.9 °F 30.20 in Calm     94 % 0.00 in
07:02 41.3 °F 39.7 °F 30.20 in Calm     94 % 0.00 in
07:07 41.2 °F 39.6 °F 30.20 in Calm     94 % 0.00 in
07:12 41.1 °F 39.5 °F 30.20 in Calm     94 % 0.00 in
07:17 41.0 °F 39.4 °F 30.20 in Calm     94 % 0.00 in
07:22 41.1 °F 39.5 °F 30.20 in Calm     94 % 0.00 in
07:27 41.9 °F 40.6 °F 30.20 in Calm     95 % 0.00 in
07:32 42.3 °F 41.0 °F 30.20 in Calm     95 % 0.00 in
07:37 42.5 °F 41.2 °F 30.20 in Calm     95 % 0.00 in
07:42 42.7 °F 41.4 °F 30.21 in Calm     95 % 0.00 in
07:47 42.7 °F 41.4 °F 30.21 in Calm     95 % 0.00 in
07:52 43.1 °F 41.8 °F 30.21 in Calm     95 % 0.00 in
07:57 43.9 °F 42.6 °F 30.21 in Calm     95 % 0.00 in
08:02 44.9 °F 43.8 °F 30.21 in Calm     96 % 0.00 in
08:07 46.0 °F 44.9 °F 30.21 in Calm     96 % 0.00 in
08:12 47.3 °F 46.2 °F 30.21 in Calm     96 % 0.00 in
08:17 48.3 °F 47.2 °F 30.21 in Calm     96 % 0.00 in
08:22 49.5 °F 47.6 °F 30.21 in Calm     93 % 0.00 in
08:27 50.4 °F 47.6 °F 30.21 in Calm     90 % 0.00 in
08:32 51.2 °F 48.1 °F 30.21 in Calm   0.1 mph 89 % 0.00 in
08:37 51.9 °F 48.5 °F 30.22 in Calm     88 % 0.00 in
08:42 52.4 °F 48.9 °F 30.21 in ESE 1.2 mph 1.2 mph 88 % 0.01 in
08:47 52.8 °F 49.3 °F 30.21 in SSE 1.2 mph   88 % 0.01 in
08:52 53.4 °F 49.6 °F 30.21 in Calm     87 % 0.01 in
08:57 54.1 °F 50.3 °F 30.21 in SE 1.2 mph 1.2 mph 87 % 0.01 in
09:02 54.6 °F 50.5 °F 30.22 in Calm   0.1 mph 86 % 0.01 in
09:07 55.2 °F 51.1 °F 30.22 in Calm     86 % 0.01 in
09:12 55.8 °F 51.4 °F 30.22 in ESE 1.2 mph   85 % 0.01 in
09:17 56.4 °F 51.6 °F 30.22 in Calm     84 % 0.01 in
09:22 57.0 °F 51.9 °F 30.23 in Calm     83 % 0.01 in
09:27 57.7 °F 52.2 °F 30.23 in Calm     82 % 0.01 in
09:32 58.3 °F 52.2 °F 30.23 in South 1.2 mph 1.2 mph 80 % 0.01 in
09:37 58.5 °F 52.0 °F 30.23 in Calm     79 % 0.01 in
09:42 58.9 °F 52.4 °F 30.22 in Calm     79 % 0.00 in
09:47 59.6 °F 52.7 °F 30.22 in South 1.2 mph   78 % 0.00 in
09:52 59.9 °F 52.7 °F 30.22 in Calm     77 % 0.00 in
09:57 60.2 °F 53.0 °F 30.23 in Calm     77 % 0.00 in
10:02 61.1 °F 53.1 °F 30.23 in SSE 1.2 mph   75 % 0.00 in
10:07 61.4 °F 52.7 °F 30.23 in SSE 2.3 mph   73 % 0.00 in
10:12 61.7 °F 52.6 °F 30.23 in SE 2.0 mph 2.0 mph 72 % 0.00 in
10:17 62.1 °F 52.6 °F 30.23 in ENE 2.3 mph   71 % 0.00 in
10:22 62.5 °F 52.6 °F 30.23 in SSE 2.3 mph 2.3 mph 70 % 0.00 in
10:27 63.0 °F 52.7 °F 30.23 in Calm   0.2 mph 69 % 0.00 in
10:32 63.5 °F 53.1 °F 30.23 in ESE 1.2 mph 1.2 mph 69 % 0.00 in
10:37 63.7 °F 52.9 °F 30.22 in Calm     68 % 0.00 in
10:42 63.4 °F 52.2 °F 30.22 in Calm     67 % 0.00 in
10:47 63.8 °F 52.6 °F 30.22 in SE 1.2 mph   67 % 0.00 in
10:52 64.1 °F 52.5 °F 30.22 in NW 1.2 mph 1.2 mph 66 % 0.00 in
10:57 64.0 °F 52.4 °F 30.22 in North 1.2 mph 1.2 mph 66 % 0.00 in
11:02 64.2 °F 52.6 °F 30.21 in Calm     66 % 0.00 in
11:07 64.4 °F 51.5 °F 30.21 in NW 3.5 mph 3.5 mph 63 % 0.00 in
11:12 64.9 °F 52.4 °F 30.21 in NNW 2.3 mph 2.3 mph 64 % 0.00 in
11:18 65.2 °F 52.7 °F 30.21 in SE 1.2 mph 1.2 mph 64 % 0.00 in
11:23 65.6 °F 53.5 °F 30.20 in West 1.2 mph 1.2 mph 65 % 0.00 in
11:28 65.7 °F 53.2 °F 30.20 in NW 3.5 mph 3.5 mph 64 % 0.00 in
11:33 65.7 °F 52.8 °F 30.20 in NW 1.2 mph 1.2 mph 63 % 0.00 in
11:38 66.4 °F 53.8 °F 30.20 in Calm   0.2 mph 64 % 0.00 in
11:43 66.7 °F 52.8 °F 30.19 in NW 1.2 mph   61 % 0.00 in
11:48 66.9 °F 53.0 °F 30.19 in West 1.2 mph 1.2 mph 61 % 0.00 in
11:53 67.0 °F 52.7 °F 30.19 in NW 1.2 mph 1.2 mph 60 % 0.00 in
11:58 66.9 °F 53.0 °F 30.18 in WNW 2.3 mph 2.3 mph 61 % 0.00 in
12:03 67.0 °F 52.7 °F 30.18 in WNW 1.2 mph 1.2 mph 60 % 0.00 in
12:08 67.2 °F 52.8 °F 30.17 in NW 1.2 mph 1.2 mph 60 % 0.00 in
12:13 67.4 °F 53.0 °F 30.17 in Calm     60 % 0.00 in
12:18 67.5 °F 52.7 °F 30.17 in Calm     59 % 0.00 in
12:23 67.9 °F 53.0 °F 30.17 in West 1.2 mph   59 % 0.00 in
12:28 68.5 °F 53.6 °F 30.16 in Calm     59 % 0.00 in
12:33 68.9 °F 53.5 °F 30.16 in NW 2.3 mph 2.3 mph 58 % 0.00 in
12:38 69.2 °F 51.3 °F 30.16 in NW 1.2 mph 1.2 mph 53 % 0.00 in
12:43 69.0 °F 52.2 °F 30.15 in WNW 1.2 mph 1.2 mph 55 % 0.00 in
12:48 69.3 °F 52.4 °F 30.14 in Calm     55 % 0.00 in
12:53 69.8 °F 51.4 °F 30.14 in NW 2.3 mph 2.3 mph 52 % 0.00 in
12:58 69.6 °F 51.2 °F 30.14 in Calm     52 % 0.00 in
13:03 70.1 °F 52.7 °F 30.14 in Calm   0.1 mph 54 % 0.00 in
13:08 70.9 °F 52.9 °F 30.13 in NW 1.2 mph 1.2 mph 53 % 0.00 in
13:13 70.9 °F 52.9 °F 30.13 in NW 3.5 mph 3.5 mph 53 % 0.00 in
13:18 70.6 °F 52.6 °F 30.13 in NW 2.3 mph 2.3 mph 53 % 0.00 in
13:23 70.6 °F 52.6 °F 30.13 in NW 1.2 mph 1.2 mph 53 % 0.00 in
13:28 70.9 °F 53.4 °F 30.12 in Calm     54 % 0.00 in
13:33 71.1 °F 52.6 °F 30.12 in WNW 1.2 mph 1.2 mph 52 % 0.00 in
13:38 71.1 °F 52.0 °F 30.12 in West 1.2 mph 1.2 mph 51 % 0.00 in
13:43 71.2 °F 51.1 °F 30.11 in West 1.2 mph   49 % 0.00 in
13:48 71.5 °F 51.9 °F 30.11 in NW 3.5 mph 3.5 mph 50 % 0.00 in
13:53 71.5 °F 50.8 °F 30.11 in NW 1.2 mph   48 % 0.00 in
13:58 71.6 °F 50.9 °F 30.11 in NW 1.2 mph 1.2 mph 48 % 0.00 in
14:03 71.8 °F 51.0 °F 30.11 in West 2.3 mph 2.3 mph 48 % 0.00 in
14:08 72.0 °F 51.8 °F 30.10 in West 3.5 mph 3.5 mph 49 % 0.00 in
14:13 72.0 °F 51.8 °F 30.10 in NW 1.2 mph 1.2 mph 49 % 0.00 in
14:18 72.0 °F 51.2 °F 30.11 in Calm     48 % 0.00 in
14:23 72.2 °F 52.0 °F 30.11 in WNW 2.0 mph 2.0 mph 49 % 0.00 in
14:28 72.3 °F 51.5 °F 30.11 in Calm     48 % 0.00 in
14:35 72.4 °F 51.6 °F 30.10 in WNW 2.3 mph 2.3 mph 48 % 0.00 in
14:40 72.5 °F 52.2 °F 30.10 in NW 1.2 mph 1.2 mph 49 % 0.00 in
14:45 72.8 °F 51.4 °F 30.10 in WNW 2.3 mph 2.3 mph 47 % 0.00 in
14:50 72.8 °F 52.0 °F 30.10 in Calm   0.2 mph 48 % 0.00 in
14:55 72.9 °F 52.1 °F 30.10 in NNW 1.2 mph 1.2 mph 48 % 0.00 in
15:00 72.7 °F 51.9 °F 30.09 in NW 2.3 mph 2.3 mph 48 % 0.00 in
15:05 72.6 °F 51.8 °F 30.09 in NW 2.3 mph 2.3 mph 48 % 0.00 in
15:10 72.5 °F 52.2 °F 30.09 in WNW 1.2 mph 1.2 mph 49 % 0.00 in
15:15 72.4 °F 51.6 °F 30.09 in WNW 1.2 mph 1.2 mph 48 % 0.00 in
15:20 72.4 °F 52.2 °F 30.09 in WNW 1.2 mph 1.2 mph 49 % 0.00 in
15:25 72.3 °F 52.1 °F 30.08 in NW 2.3 mph 2.3 mph 49 % 0.00 in
15:30 72.2 °F 52.0 °F 30.08 in Calm     49 % 0.00 in
15:35 72.0 °F 52.3 °F 30.08 in NW 1.2 mph 1.2 mph 50 % 0.00 in
15:40 72.0 °F 52.3 °F 30.08 in Calm     50 % 0.00 in
15:45 71.9 °F 52.2 °F 30.08 in Calm     50 % 0.00 in
15:50 71.9 °F 52.2 °F 30.08 in NW 2.3 mph 2.3 mph 50 % 0.00 in
15:55 71.8 °F 52.7 °F 30.08 in NW 2.3 mph 2.3 mph 51 % 0.00 in
16:00 71.7 °F 52.6 °F 30.08 in NW 3.5 mph 3.5 mph 51 % 0.00 in
16:05 71.5 °F 52.9 °F 30.08 in WNW 2.3 mph 2.3 mph 52 % 0.00 in
16:10 71.3 °F 52.8 °F 30.08 in NW 1.2 mph 1.2 mph 52 % 0.00 in
16:15 71.2 °F 53.2 °F 30.08 in NW 3.5 mph 3.5 mph 53 % 0.00 in
16:20 71.0 °F 53.0 °F 30.08 in NW 1.2 mph 1.2 mph 53 % 0.00 in
16:25 71.0 °F 53.5 °F 30.08 in NW 1.2 mph 1.2 mph 54 % 0.00 in
16:30 70.8 °F 53.3 °F 30.08 in NW 1.2 mph 1.2 mph 54 % 0.00 in
16:36 70.5 °F 53.1 °F 30.08 in WNW 1.2 mph 1.2 mph 54 % 0.00 in
16:40 70.3 °F 53.4 °F 30.08 in NW 1.2 mph   55 % 0.00 in
16:45 70.0 °F 53.6 °F 30.08 in WNW 1.2 mph   56 % 0.00 in
16:50 69.6 °F 53.7 °F 30.08 in Calm     57 % 0.00 in
16:55 69.1 °F 53.7 °F 30.08 in Calm     58 % 0.00 in
17:00 68.6 °F 53.7 °F 30.08 in Calm     59 % 0.00 in
17:05 68.2 °F 53.3 °F 30.08 in Calm     59 % 0.00 in
17:11 67.9 °F 53.0 °F 30.08 in Calm     59 % 0.00 in
17:16 67.6 °F 53.2 °F 30.08 in Calm     60 % 0.00 in
17:21 67.1 °F 52.7 °F 30.08 in Calm     60 % 0.00 in
17:26 66.6 °F 52.7 °F 30.08 in Calm     61 % 0.00 in
17:31 66.2 °F 52.3 °F 30.08 in Calm     61 % 0.00 in
17:36 65.8 °F 52.4 °F 30.08 in Calm     62 % 0.00 in
17:41 65.1 °F 52.2 °F 30.08 in Calm     63 % 0.00 in
17:46 64.3 °F 52.3 °F 30.09 in Calm     65 % 0.00 in
17:51 63.7 °F 52.1 °F 30.09 in Calm     66 % 0.00 in
17:56 63.0 °F 52.3 °F 30.09 in Calm     68 % 0.00 in
18:01 62.2 °F 51.9 °F 30.09 in Calm     69 % 0.00 in
18:06 61.7 °F 51.8 °F 30.09 in Calm     70 % 0.00 in
18:11 61.5 °F 52.0 °F 30.09 in Calm     71 % 0.00 in
18:16 61.1 °F 51.6 °F 30.09 in Calm     71 % 0.00 in
18:21 60.6 °F 51.9 °F 30.09 in Calm     73 % 0.00 in
18:26 60.1 °F 51.8 °F 30.10 in Calm     74 % 0.00 in
18:31 59.5 °F 51.6 °F 30.10 in Calm     75 % 0.00 in
18:36 58.9 °F 51.3 °F 30.10 in Calm     76 % 0.00 in
18:41 58.4 °F 51.2 °F 30.10 in Calm     77 % 0.00 in
18:46 58.3 °F 50.8 °F 30.10 in Calm     76 % 0.00 in
18:51 57.3 °F 50.8 °F 30.10 in Calm     79 % 0.00 in
18:56 56.8 °F 50.7 °F 30.11 in Calm     80 % 0.00 in
19:01 56.7 °F 50.9 °F 30.11 in Calm     81 % 0.00 in
19:06 56.5 °F 50.7 °F 30.11 in Calm     81 % 0.00 in
19:11 56.3 °F 50.5 °F 30.11 in Calm     81 % 0.00 in
19:16 56.1 °F 50.7 °F 30.11 in Calm     82 % 0.00 in
19:21 56.1 °F 51.0 °F 30.11 in Calm     83 % 0.00 in
19:26 56.1 °F 50.7 °F 30.11 in Calm     82 % 0.00 in
19:31 56.0 °F 50.6 °F 30.12 in Calm     82 % 0.00 in
19:36 56.2 °F 50.8 °F 30.12 in Calm     82 % 0.00 in
19:41 56.4 °F 51.0 °F 30.12 in Calm     82 % 0.00 in
19:46 56.6 °F 50.8 °F 30.12 in Calm     81 % 0.00 in
19:51 56.3 °F 50.5 °F 30.12 in Calm     81 % 0.00 in
19:56 56.0 °F 50.6 °F 30.12 in Calm     82 % 0.00 in
20:01 56.1 °F 50.7 °F 30.12 in Calm     82 % 0.00 in
20:06 56.1 °F 50.7 °F 30.12 in Calm     82 % 0.00 in
20:11 56.1 °F 50.3 °F 30.13 in Calm     81 % 0.00 in
20:16 55.9 °F 50.5 °F 30.13 in Calm     82 % 0.00 in
20:21 55.7 °F 50.3 °F 30.13 in Calm     82 % 0.00 in
20:26 55.5 °F 50.1 °F 30.13 in Calm     82 % 0.00 in
20:31 55.2 °F 50.1 °F 30.13 in Calm     83 % 0.00 in
20:36 55.0 °F 49.9 °F 30.13 in Calm     83 % 0.00 in
20:41 54.8 °F 49.7 °F 30.13 in Calm     83 % 0.00 in
20:46 54.7 °F 50.0 °F 30.13 in Calm     84 % 0.00 in
20:51 54.5 °F 49.4 °F 30.13 in Calm     83 % 0.00 in
20:56 54.2 °F 49.5 °F 30.13 in Calm     84 % 0.00 in
21:01 54.0 °F 49.6 °F 30.13 in Calm     85 % 0.00 in
21:06 54.1 °F 49.7 °F 30.13 in Calm     85 % 0.00 in
21:11 53.8 °F 49.1 °F 30.14 in Calm     84 % 0.00 in
21:16 53.8 °F 49.7 °F 30.13 in Calm     86 % 0.00 in
21:21 53.9 °F 49.5 °F 30.14 in Calm     85 % 0.00 in
21:26 53.6 °F 49.2 °F 30.14 in Calm     85 % 0.00 in
21:31 53.3 °F 48.9 °F 30.14 in Calm     85 % 0.00 in
21:36 53.0 °F 48.9 °F 30.14 in Calm     86 % 0.00 in
21:41 52.8 °F 48.7 °F 30.14 in Calm     86 % 0.00 in
21:46 52.6 °F 48.5 °F 30.14 in Calm     86 % 0.00 in
21:51 52.3 °F 48.5 °F 30.14 in Calm     87 % 0.00 in
21:57 52.0 °F 47.9 °F 30.14 in Calm     86 % 0.00 in
22:02 51.8 °F 48.1 °F 30.14 in Calm     87 % 0.00 in
22:07 51.7 °F 48.3 °F 30.14 in Calm     88 % 0.00 in
22:12 51.7 °F 48.3 °F 30.14 in Calm     88 % 0.00 in
22:17 51.4 °F 48.0 °F 30.14 in Calm     88 % 0.00 in
22:22 51.2 °F 47.5 °F 30.14 in Calm     87 % 0.00 in
22:27 50.8 °F 47.1 °F 30.14 in Calm     87 % 0.00 in
22:32 50.5 °F 47.1 °F 30.14 in Calm     88 % 0.00 in
22:37 50.4 °F 47.0 °F 30.14 in Calm     88 % 0.00 in
22:42 50.4 °F 47.0 °F 30.14 in Calm     88 % 0.00 in
22:47 50.5 °F 47.7 °F 30.14 in Calm     90 % 0.00 in
22:52 50.5 °F 47.4 °F 30.14 in Calm     89 % 0.00 in
22:57 50.5 °F 47.7 °F 30.14 in Calm     90 % 0.00 in
23:02 50.5 °F 47.4 °F 30.14 in Calm     89 % 0.00 in
23:07 50.3 °F 47.2 °F 30.14 in Calm     89 % 0.00 in
23:12 50.2 °F 47.1 °F 30.14 in Calm     89 % 0.00 in
23:17 50.0 °F 46.6 °F 30.14 in Calm     88 % 0.00 in
23:22 49.5 °F 45.8 °F 30.14 in Calm     87 % 0.00 in
23:27 48.9 °F 45.2 °F 30.13 in Calm     87 % 0.00 in
23:32 48.5 °F 45.1 °F 30.13 in Calm     88 % 0.00 in
23:37 48.1 °F 45.0 °F 30.13 in Calm     89 % 0.00 in
23:42 48.0 °F 45.2 °F 30.13 in Calm     90 % 0.00 in
23:47 47.8 °F 45.0 °F 30.13 in Calm     90 % 0.00 in
23:52 47.6 °F 44.8 °F 30.13 in Calm     90 % 0.00 in
23:57 47.3 °F 44.5 °F 30.13 in Calm     90 % 0.00 in
Park Place, Exeter, Tulare County, California, USA
Compliments of Weather Underground - 2.75 mb